Time;durP1;ratioP1;P1;durP2;ratioP2;P2;SDS_P1;SDS_P2;PMS_P1;PMS_P2;Temp;Humidity;BMP_temperature;BMP_pressure;BME280_temperature;BME280_humidity;BME280_pressure;Samples;Min_cycle;Max_cycle;Signal;HPM_P1;HPM_P2
2023/08/02 00:01:45;;;;;;;4.00;1.98;;;;;;;18.78;62.58;96249.06;4966141;28;20198;-83
2023/08/02 00:04:11;;;;;;;4.15;1.75;;;;;;;18.76;62.87;96245.19;4934176;28;20160;-83
2023/08/02 00:06:36;;;;;;;2.70;1.60;;;;;;;18.78;62.60;96235.09;4944414;28;20328;-83
2023/08/02 00:09:02;;;;;;;3.05;1.90;;;;;;;18.92;61.65;96240.13;4963982;28;20303;-84
2023/08/02 00:11:28;;;;;;;2.55;1.50;;;;;;;18.77;62.77;96228.28;4964778;28;20287;-84
2023/08/02 00:13:53;;;;;;;5.70;1.77;;;;;;;18.74;62.85;96227.03;4966088;28;20171;-82
2023/08/02 00:16:19;;;;;;;3.33;1.55;;;;;;;18.77;62.29;96215.09;4958281;28;20453;-85
2023/08/02 00:18:44;;;;;;;2.63;1.90;;;;;;;18.75;62.62;96204.06;4937610;28;20348;-83
2023/08/02 00:21:09;;;;;;;3.47;1.98;;;;;;;18.77;62.36;96213.22;4951633;28;20420;-85
2023/08/02 00:23:35;;;;;;;3.92;2.00;;;;;;;18.77;62.14;96200.03;4936007;28;20189;-84
2023/08/02 00:26:00;;;;;;;1.85;1.50;;;;;;;18.75;62.65;96202.22;4969884;28;20272;-84
2023/08/02 00:28:26;;;;;;;2.95;1.90;;;;;;;18.75;62.22;96215.41;4936210;28;20183;-84
2023/08/02 00:30:51;;;;;;;3.10;1.48;;;;;;;18.54;62.29;96186.38;4936383;28;20183;-81
2023/08/02 00:33:16;;;;;;;3.50;1.73;;;;;;;18.68;62.14;96220.44;4952337;28;20171;-84
2023/08/02 00:35:46;;;;;;;3.53;2.08;;;;;;;18.65;62.47;96213.91;4971834;28;20654;-84
2023/08/02 00:38:13;;;;;;;5.05;2.05;;;;;;;18.57;62.84;96216.59;4957914;28;20156;-83
2023/08/02 00:40:38;;;;;;;2.53;1.30;;;;;;;18.68;62.70;96207.25;4939339;28;20299;-84
2023/08/02 00:43:04;;;;;;;2.50;1.65;;;;;;;18.72;62.24;96213.41;4950494;28;20158;-84
2023/08/02 00:45:29;;;;;;;3.83;1.92;;;;;;;18.70;62.42;96205.81;4940716;28;20289;-83
2023/08/02 00:47:56;;;;;;;5.15;1.60;;;;;;;18.74;62.67;96198.03;4971629;28;20269;-83
2023/08/02 00:50:22;;;;;;;2.50;1.80;;;;;;;18.69;63.02;96193.72;4971926;28;20341;-82
2023/08/02 00:52:47;;;;;;;2.65;1.95;;;;;;;18.74;63.47;96184.09;4938533;28;20181;-85
2023/08/02 00:55:13;;;;;;;2.80;1.75;;;;;;;18.76;61.87;96172.09;4934187;28;20647;-83
2023/08/02 00:57:38;;;;;;;3.90;1.77;;;;;;;18.83;61.94;96180.34;4935228;28;20151;-83
2023/08/02 01:00:04;;;;;;;6.18;2.10;;;;;;;18.81;62.41;96174.56;4966659;28;20460;-83
2023/08/02 01:02:30;;;;;;;2.85;1.73;;;;;;;18.91;61.84;96186.63;4952211;28;20313;-82
2023/08/02 01:04:55;;;;;;;3.33;1.58;;;;;;;18.98;61.42;96194.03;4986629;22;20230;-81
2023/08/02 01:07:29;;;;;;;2.13;1.95;;;;;;;19.06;61.41;96190.53;4930904;28;20725;-81
2023/08/02 01:10:15;;;;;;;2.17;1.75;;;;;;;19.16;61.46;96192.78;4964577;28;20606;-81
2023/08/02 01:12:44;;;;;;;2.20;1.80;;;;;;;19.11;61.68;96197.47;4933084;28;20659;-81
2023/08/02 01:15:10;;;;;;;3.45;1.98;;;;;;;18.99;61.90;96185.03;4946257;28;20177;-82
2023/08/02 01:17:36;;;;;;;2.45;1.50;;;;;;;19.03;61.63;96180.63;4948782;28;20200;-82
2023/08/02 01:20:03;;;;;;;5.28;1.77;;;;;;;19.00;61.64;96168.84;4933836;28;20182;-81
2023/08/02 01:22:29;;;;;;;5.07;2.05;;;;;;;18.98;62.10;96172.91;4946351;28;20305;-81
2023/08/02 01:24:56;;;;;;;3.97;1.75;;;;;;;18.94;62.06;96167.50;4964090;28;20283;-81
2023/08/02 01:27:24;;;;;;;3.45;1.92;;;;;;;19.03;62.04;96160.28;4942166;28;20206;-81
2023/08/02 01:29:51;;;;;;;3.47;2.03;;;;;;;19.07;61.63;96158.56;4948134;28;20159;-81
2023/08/02 01:32:17;;;;;;;2.15;1.83;;;;;;;19.06;61.54;96157.00;4947050;28;20160;-81
2023/08/02 01:34:43;;;;;;;3.72;2.00;;;;;;;18.99;61.71;96148.09;4931499;28;20191;-82
2023/08/02 01:37:09;;;;;;;2.33;1.90;;;;;;;18.94;61.82;96148.28;4946710;28;20203;-81
2023/08/02 01:39:34;;;;;;;2.30;1.88;;;;;;;19.03;61.83;96162.16;4959995;28;20625;-81
2023/08/02 01:41:59;;;;;;;4.10;2.10;;;;;;;18.97;62.12;96160.81;4946320;28;20101;-83
2023/08/02 01:44:25;;;;;;;5.28;1.98;;;;;;;18.93;62.32;96152.78;4962109;28;20214;-82
2023/08/02 01:46:50;;;;;;;3.72;1.90;;;;;;;18.98;62.52;96151.81;4947594;28;20198;-81
2023/08/02 01:49:15;;;;;;;2.53;1.70;;;;;;;19.01;61.55;96132.72;4947372;28;20202;-81
2023/08/02 01:51:41;;;;;;;3.15;1.75;;;;;;;19.00;62.14;96123.22;4945908;28;20637;-81
2023/08/02 01:54:06;;;;;;;5.20;2.25;;;;;;;18.97;62.46;96116.75;4930264;28;20673;-81
2023/08/02 01:56:31;;;;;;;2.75;1.67;;;;;;;18.97;62.18;96095.66;4929422;28;20164;-81
2023/08/02 01:58:57;;;;;;;3.28;1.55;;;;;;;18.96;62.01;96111.81;4946211;28;20141;-81
2023/08/02 02:01:22;;;;;;;4.00;1.85;;;;;;;19.04;61.55;96108.31;4960283;28;20628;-81
2023/08/02 02:03:47;;;;;;;2.58;1.58;;;;;;;19.05;62.51;96107.97;4944354;28;20572;-81
2023/08/02 02:06:13;;;;;;;4.80;1.80;;;;;;;19.00;62.80;96099.50;4948698;28;20573;-82
2023/08/02 02:08:48;;;;;;;2.38;1.85;;;;;;;18.94;62.39;96092.91;4982350;28;20180;-82
2023/08/02 02:11:14;;;;;;;3.17;1.90;;;;;;;18.98;62.78;96099.06;4979957;28;20492;-81
2023/08/02 02:13:39;;;;;;;3.33;1.65;;;;;;;18.99;62.27;96092.69;4967101;28;20285;-81
2023/08/02 02:16:04;;;;;;;2.90;2.00;;;;;;;19.00;61.86;96094.22;4948419;28;20542;-81
2023/08/02 02:18:30;;;;;;;4.72;2.20;;;;;;;19.02;62.22;96086.75;4945566;28;20475;-82
2023/08/02 02:20:55;;;;;;;3.97;2.70;;;;;;;19.01;62.58;96079.94;4959000;28;20273;-83
2023/08/02 02:23:21;;;;;;;3.58;1.75;;;;;;;19.01;62.30;96072.03;4931994;28;20245;-82
2023/08/02 02:25:46;;;;;;;2.58;1.95;;;;;;;19.01;62.42;96077.31;4948653;28;20187;-81
2023/08/02 02:28:12;;;;;;;3.33;1.95;;;;;;;19.04;62.70;96066.88;4959795;28;20253;-81
2023/08/02 02:30:37;;;;;;;3.65;1.95;;;;;;;18.99;62.56;96047.84;4946728;28;20709;-81
2023/08/02 02:33:04;;;;;;;5.63;2.13;;;;;;;18.98;62.29;96036.50;4963727;28;20281;-81
2023/08/02 02:35:30;;;;;;;3.25;1.88;;;;;;;18.99;62.44;96027.50;4929652;28;20266;-83
2023/08/02 02:37:55;;;;;;;4.70;2.80;;;;;;;19.07;62.12;96036.41;4960905;28;20217;-81
2023/08/02 02:40:21;;;;;;;2.65;2.03;;;;;;;19.01;61.83;96035.84;4963345;28;20194;-81
2023/08/02 02:42:46;;;;;;;2.63;1.75;;;;;;;19.06;61.73;96022.47;4948420;28;20186;-80
2023/08/02 02:45:11;;;;;;;3.95;2.20;;;;;;;19.07;61.96;96025.84;4950534;28;20189;-81
2023/08/02 02:47:37;;;;;;;2.35;1.75;;;;;;;19.06;61.77;96026.97;4949489;28;20157;-81
2023/08/02 02:50:03;;;;;;;3.03;2.30;;;;;;;19.10;62.32;96025.22;4949138;28;20160;-81
2023/08/02 02:52:28;;;;;;;2.65;2.13;;;;;;;19.06;61.83;96017.19;4932328;28;20699;-81
2023/08/02 02:54:54;;;;;;;2.58;2.05;;;;;;;19.03;62.69;96019.72;4961152;28;20136;-81
2023/08/02 02:57:19;;;;;;;4.10;2.22;;;;;;;19.10;62.46;96019.94;4937255;28;20237;-80
2023/08/02 02:59:44;;;;;;;2.90;2.05;;;;;;;19.05;61.88;95999.81;4950247;28;20362;-81
2023/08/02 03:02:10;;;;;;;5.25;2.25;;;;;;;19.22;62.04;96004.09;4925817;28;20188;-82
2023/08/02 03:04:35;;;;;;;3.33;2.10;;;;;;;19.13;62.19;95997.41;4946583;28;20247;-80
2023/08/02 03:07:01;;;;;;;4.35;2.03;;;;;;;19.10;62.03;95977.72;4926916;28;20641;-81
2023/08/02 03:09:26;;;;;;;2.90;2.00;;;;;;;19.11;62.10;95975.84;4926506;28;20307;-81
2023/08/02 03:11:52;;;;;;;5.30;2.28;;;;;;;19.20;61.44;95958.81;4961221;28;20247;-81
2023/08/02 03:14:17;;;;;;;11.32;2.22;;;;;;;19.27;61.94;95961.66;4931256;28;20280;-81
2023/08/02 03:16:45;;;;;;;3.00;2.00;;;;;;;19.23;61.72;95957.41;4961539;28;20187;-80
2023/08/02 03:19:11;;;;;;;4.32;2.35;;;;;;;19.30;61.27;95967.41;4928768;28;20190;-81
2023/08/02 03:21:37;;;;;;;2.80;2.08;;;;;;;19.32;61.92;95965.97;4945157;28;20837;-81
2023/08/02 03:24:03;;;;;;;3.00;2.28;;;;;;;19.28;61.83;95962.47;4963937;28;20363;-81
2023/08/02 03:26:28;;;;;;;3.70;2.03;;;;;;;19.22;61.66;95953.97;4930324;28;20184;-82
2023/08/02 03:28:53;;;;;;;2.60;2.08;;;;;;;19.33;62.23;95961.44;4946966;28;20195;-81
2023/08/02 03:31:19;;;;;;;5.13;2.63;;;;;;;19.32;61.93;95958.06;4945071;28;20194;-80
2023/08/02 03:33:44;;;;;;;3.45;2.47;;;;;;;19.28;62.38;95951.91;4927932;28;20335;-80
2023/08/02 03:36:10;;;;;;;3.08;2.22;;;;;;;19.28;61.24;95950.03;4960396;28;20195;-82
2023/08/02 03:38:35;;;;;;;3.85;2.45;;;;;;;19.35;62.01;95954.00;4961825;28;20493;-81
2023/08/02 03:41:00;;;;;;;3.25;2.05;;;;;;;19.22;62.75;95953.97;4931479;28;20671;-81
2023/08/02 03:43:26;;;;;;;5.70;2.40;;;;;;;19.30;62.59;95954.22;4945816;28;20382;-80
2023/08/02 03:45:51;;;;;;;3.08;2.58;;;;;;;19.15;63.85;95945.84;4929456;28;20328;-81
2023/08/02 03:48:16;;;;;;;3.80;2.70;;;;;;;19.08;64.60;95935.06;4964940;28;20203;-81
2023/08/02 03:50:42;;;;;;;4.30;3.17;;;;;;;18.96;65.30;95940.34;4948431;28;20333;-81
2023/08/02 03:53:08;;;;;;;4.53;2.78;;;;;;;19.06;65.21;95940.69;4950587;28;20289;-82
2023/08/02 03:55:33;;;;;;;5.43;2.42;;;;;;;19.16;64.57;95925.50;4967099;28;20289;-80
2023/08/02 03:57:59;;;;;;;3.25;2.20;;;;;;;18.96;65.47;95904.19;4965270;28;20345;-81
2023/08/02 04:00:24;;;;;;;3.80;2.08;;;;;;;19.10;65.40;95909.13;4964263;28;20196;-80
2023/08/02 04:02:49;;;;;;;3.38;2.35;;;;;;;19.07;65.74;95915.84;4950785;28;20696;-81
2023/08/02 04:05:15;;;;;;;4.22;3.00;;;;;;;19.04;65.71;95911.22;4931656;28;20258;-81
2023/08/02 04:07:40;;;;;;;3.95;2.70;;;;;;;18.98;66.51;95909.13;4946789;28;20274;-80
2023/08/02 04:10:06;;;;;;;3.75;2.53;;;;;;;19.08;66.08;95917.38;4948462;28;20272;-81
2023/08/02 04:12:32;;;;;;;4.80;2.70;;;;;;;19.04;66.33;95921.00;4946037;28;20599;-81
2023/08/02 04:14:57;;;;;;;4.38;2.45;;;;;;;19.04;66.47;95916.50;4948524;28;20194;-81
2023/08/02 04:17:25;;;;;;;5.93;2.63;;;;;;;19.10;66.14;95914.41;4945619;28;20707;-81
2023/08/02 04:19:51;;;;;;;4.60;2.40;;;;;;;19.05;66.42;95904.06;4956030;28;20753;-81
2023/08/02 04:22:16;;;;;;;3.05;2.10;;;;;;;19.07;66.18;95917.69;4926850;28;20272;-80
2023/08/02 04:24:42;;;;;;;4.18;2.58;;;;;;;19.08;66.03;95906.06;4945811;28;20192;-80
2023/08/02 04:27:07;;;;;;;2.42;2.22;;;;;;;19.09;66.96;95905.72;4930795;28;20593;-80
2023/08/02 04:29:32;;;;;;;2.55;2.35;;;;;;;18.98;66.80;95888.03;4933929;28;20187;-81
2023/08/02 04:31:58;;;;;;;3.25;2.13;;;;;;;18.98;67.17;95893.31;4966839;28;20288;-80
2023/08/02 04:34:23;;;;;;;4.00;2.45;;;;;;;18.94;67.35;95889.78;4951921;28;20160;-81
2023/08/02 04:36:48;;;;;;;4.28;2.28;;;;;;;18.92;67.70;95894.59;4951281;28;20155;-80
2023/08/02 04:39:15;;;;;;;3.78;2.38;;;;;;;19.01;67.49;95906.59;4968524;28;20244;-81
2023/08/02 04:41:40;;;;;;;4.13;2.58;;;;;;;18.90;68.05;95893.09;4949636;28;20198;-82
2023/08/02 04:44:06;;;;;;;3.58;2.50;;;;;;;19.06;67.24;95895.81;4964912;28;20214;-81
2023/08/02 04:46:31;;;;;;;3.10;2.35;;;;;;;18.96;68.00;95884.94;4932635;28;20160;-80
2023/08/02 04:48:56;;;;;;;2.85;2.13;;;;;;;18.94;68.02;95884.53;4949751;28;20210;-82
2023/08/02 04:51:22;;;;;;;2.58;2.20;;;;;;;18.88;68.65;95879.47;4933587;28;20279;-80
2023/08/02 04:53:48;;;;;;;2.50;2.30;;;;;;;18.80;68.46;95871.59;4949468;28;20182;-81
2023/08/02 04:56:17;;;;;;;3.72;2.10;;;;;;;18.92;68.73;95870.88;4931630;28;20193;-81
2023/08/02 04:58:42;;;;;;;4.45;2.25;;;;;;;18.84;68.66;95857.47;4946467;28;20194;-81
2023/08/02 05:01:08;;;;;;;3.50;2.67;;;;;;;18.94;68.76;95852.88;4931646;28;20214;-80
2023/08/02 05:03:34;;;;;;;2.92;2.22;;;;;;;18.96;69.11;95853.31;4963042;28;20187;-79
2023/08/02 05:06:00;;;;;;;2.85;2.35;;;;;;;18.98;68.17;95856.38;4948721;28;20194;-80
2023/08/02 05:08:29;;;;;;;3.00;1.90;;;;;;;19.01;68.55;95855.72;4963666;28;20271;-79
2023/08/02 05:10:54;;;;;;;2.92;2.25;;;;;;;19.03;68.29;95848.22;4945860;28;20205;-80
2023/08/02 05:13:22;;;;;;;3.22;2.20;;;;;;;18.99;68.52;95832.31;4963233;28;20560;-79
2023/08/02 05:15:48;;;;;;;6.68;2.33;;;;;;;18.98;69.28;95848.47;4963431;28;20574;-79
2023/08/02 05:18:13;;;;;;;1.98;1.50;;;;;;;18.99;69.24;95842.09;4968408;28;20203;-82
2023/08/02 05:20:38;;;;;;;3.00;2.03;;;;;;;18.94;69.43;95842.31;4939847;28;20213;-81
2023/08/02 05:23:04;;;;;;;2.83;1.80;;;;;;;19.00;69.48;95835.69;4949413;28;20152;-80
2023/08/02 05:25:33;;;;;;;2.70;2.00;;;;;;;19.05;68.43;95836.25;4972984;28;20217;-82
2023/08/02 05:27:59;;;;;;;2.90;2.25;;;;;;;18.97;69.56;95834.50;4957125;28;20182;-82
2023/08/02 05:30:27;;;;;;;2.00;1.80;;;;;;;19.00;69.24;95828.56;4938629;28;20349;-84
2023/08/02 05:32:52;;;;;;;2.30;1.80;;;;;;;18.98;69.47;95822.09;4943147;28;20273;-82
2023/08/02 05:35:17;;;;;;;1.80;1.67;;;;;;;18.99;69.39;95826.28;4960267;28;20217;-84
2023/08/02 05:37:43;;;;;;;2.30;2.10;;;;;;;19.00;69.97;95819.88;4974188;28;20233;-85
2023/08/02 05:40:08;;;;;;;2.47;2.08;;;;;;;19.10;69.76;95829.97;4940175;28;20202;-83
2023/08/02 05:42:34;;;;;;;2.20;1.85;;;;;;;18.96;69.87;95817.13;4965278;28;20565;-84
2023/08/02 05:44:59;;;;;;;2.10;1.77;;;;;;;18.98;70.34;95822.09;4947479;28;20172;-84
2023/08/02 05:47:27;;;;;;;2.33;1.95;;;;;;;19.07;69.66;95806.88;4969722;28;20243;-85
2023/08/02 05:49:53;;;;;;;3.45;2.03;;;;;;;19.05;69.61;95782.72;4961521;28;20202;-85
2023/08/02 05:52:18;;;;;;;2.53;1.77;;;;;;;19.14;69.94;95785.22;4949231;28;20164;-85
2023/08/02 05:54:44;;;;;;;1.98;1.33;;;;;;;19.12;70.32;95782.16;4943309;28;20251;-85
2023/08/02 05:57:09;;;;;;;2.58;1.60;;;;;;;18.98;70.01;95758.78;4940368;28;20247;-85
2023/08/02 05:59:37;;;;;;;2.47;1.40;;;;;;;19.07;69.51;95770.75;4971546;28;20195;-85
2023/08/02 06:02:03;;;;;;;2.00;1.60;;;;;;;19.05;70.19;95761.63;4945132;28;20202;-86
2023/08/02 06:04:29;;;;;;;1.30;1.15;;;;;;;18.81;70.93;95757.88;4974127;28;20233;-88
2023/08/02 06:06:54;;;;;;;3.10;1.63;;;;;;;18.72;71.11;95741.44;4951661;28;20324;-84
2023/08/02 06:09:19;;;;;;;1.52;1.10;;;;;;;18.86;70.60;95728.69;4956241;28;20213;-86
2023/08/02 06:11:45;;;;;;;1.77;1.40;;;;;;;19.07;71.02;95744.38;4971651;28;20187;-85
2023/08/02 06:14:11;;;;;;;1.58;1.33;;;;;;;18.97;71.05;95733.50;4952827;28;20277;-87
2023/08/02 06:16:36;;;;;;;1.23;1.08;;;;;;;18.94;70.97;95715.72;4931076;28;20164;-82
2023/08/02 06:19:02;;;;;;;1.67;1.13;;;;;;;19.08;70.65;95722.13;4962750;28;20157;-85
2023/08/02 06:21:27;;;;;;;1.35;1.00;;;;;;;18.89;71.22;95719.34;4932934;28;20219;-84
2023/08/02 06:23:52;;;;;;;2.25;1.08;;;;;;;18.84;71.15;95720.34;4949762;28;20265;-86
2023/08/02 06:26:18;;;;;;;5.13;2.00;;;;;;;18.94;70.94;95713.84;4948581;28;20270;-86
2023/08/02 06:28:44;;;;;;;1.30;0.90;;;;;;;18.94;70.58;95691.97;4948444;28;20195;-87
2023/08/02 06:31:09;;;;;;;1.38;0.80;;;;;;;19.03;70.85;95701.28;4949688;28;20518;-83
2023/08/02 06:33:35;;;;;;;1.00;0.90;;;;;;;18.93;71.27;95685.16;4932924;28;20192;-86
2023/08/02 06:36:00;;;;;;;0.85;0.85;;;;;;;18.69;72.03;95687.47;4964882;28;20297;-82
2023/08/02 06:38:26;;;;;;;0.80;0.80;;;;;;;18.89;71.99;95682.44;4945679;28;20192;-85
2023/08/02 06:40:51;;;;;;;0.73;0.70;;;;;;;18.86;72.05;95662.75;4931294;28;20748;-85
2023/08/02 06:43:17;;;;;;;0.85;0.60;;;;;;;18.91;71.95;95664.41;4935761;28;20697;-85
2023/08/02 06:45:46;;;;;;;0.65;0.57;;;;;;;19.08;71.54;95655.44;4950025;28;20207;-82
2023/08/02 06:48:13;;;;;;;0.80;0.60;;;;;;;18.92;71.67;95657.25;4934177;28;20145;-84
2023/08/02 06:50:38;;;;;;;0.60;0.50;;;;;;;18.69;72.15;95628.72;4949618;28;20648;-84
2023/08/02 06:53:06;;;;;;;0.93;0.60;;;;;;;19.01;71.88;95639.41;4966206;28;20160;-85
2023/08/02 06:55:32;;;;;;;0.50;0.50;;;;;;;19.13;71.62;95657.81;4946954;28;20213;-84
2023/08/02 06:57:57;;;;;;;0.60;0.60;;;;;;;19.03;71.60;95637.19;4964123;28;20215;-86
2023/08/02 07:00:22;;;;;;;0.85;0.70;;;;;;;19.08;71.60;95650.16;4952393;28;20160;-83
2023/08/02 07:02:48;;;;;;;0.50;0.50;;;;;;;19.07;71.64;95638.06;4931494;28;20210;-86
2023/08/02 07:05:13;;;;;;;0.65;0.43;;;;;;;19.01;72.58;95636.78;4937129;28;20160;-83
2023/08/02 07:07:39;;;;;;;0.50;0.50;;;;;;;19.01;72.48;95627.00;4940660;28;20091;-87
2023/08/02 07:10:04;;;;;;;0.40;0.40;;;;;;;18.67;73.58;95605.31;4953964;28;20175;-87
2023/08/02 07:12:29;;;;;;;0.40;0.40;;;;;;;19.09;72.50;95631.34;4954195;28;20288;-85
2023/08/02 07:14:55;;;;;;;0.43;0.43;;;;;;;18.95;72.59;95630.97;4953053;28;20258;-85
2023/08/02 07:17:21;;;;;;;1.08;0.40;;;;;;;18.92;72.74;95621.09;4938084;28;20249;-85
2023/08/02 07:19:46;;;;;;;0.52;0.52;;;;;;;19.13;72.54;95626.16;4936226;28;20594;-84
2023/08/02 07:22:17;;;;;;;0.40;0.40;;;;;;;19.32;71.74;95614.97;4951983;28;20728;-86
2023/08/02 07:24:43;;;;;;;0.50;0.50;;;;;;;19.32;71.56;95598.38;4952659;28;20146;-87
2023/08/02 07:27:09;;;;;;;0.45;0.45;;;;;;;19.19;71.93;95609.00;4955949;28;20163;-86
2023/08/02 07:29:35;;;;;;;0.50;0.22;;;;;;;19.09;72.77;95604.97;4950842;28;20194;-85
2023/08/02 07:32:00;;;;;;;0.43;0.43;;;;;;;19.22;71.93;95610.94;4967506;28;20281;-86
2023/08/02 07:34:26;;;;;;;0.45;0.45;;;;;;;19.18;71.99;95610.09;4936079;28;20348;-85
2023/08/02 07:36:51;;;;;;;0.40;0.40;;;;;;;19.14;72.54;95601.31;4955378;28;20201;-85
2023/08/02 07:39:17;;;;;;;0.70;0.40;;;;;;;19.29;72.30;95591.88;4940156;28;20192;-84
2023/08/02 07:41:42;;;;;;;0.30;0.30;;;;;;;19.33;72.79;95598.03;4935083;28;20726;-82
2023/08/02 07:44:08;;;;;;;0.40;0.40;;;;;;;19.40;72.79;95585.00;4966146;28;20215;-83
2023/08/02 07:46:33;;;;;;;0.30;0.30;;;;;;;19.33;72.96;95579.56;4966259;28;20231;-82
2023/08/02 07:48:58;;;;;;;0.43;0.43;;;;;;;19.35;72.44;95573.94;4935304;28;20210;-84
2023/08/02 07:51:24;;;;;;;0.50;0.50;;;;;;;19.72;71.82;95568.38;4932159;28;20190;-82
2023/08/02 07:53:49;;;;;;;0.40;0.40;;;;;;;19.52;72.78;95568.31;4951856;28;20280;-82
2023/08/02 07:56:15;;;;;;;0.40;0.40;;;;;;;19.35;72.14;95568.66;4969614;28;20076;-83
2023/08/02 07:58:40;;;;;;;0.30;0.30;;;;;;;19.66;71.91;95573.16;4933092;28;20237;-83
2023/08/02 08:01:07;;;;;;;0.68;0.40;;;;;;;19.66;71.94;95602.22;4956642;28;20247;-82
2023/08/02 08:03:33;;;;;;;1.95;0.30;;;;;;;19.52;72.31;95581.50;4941629;28;20190;-84
2023/08/02 08:05:58;;;;;;;0.30;0.30;;;;;;;19.52;72.08;95559.63;4948078;28;20659;-81
2023/08/02 08:08:23;;;;;;;0.40;0.20;;;;;;;19.48;72.52;95578.00;4933665;28;20178;-86
2023/08/02 08:10:50;;;;;;;0.30;0.30;;;;;;;19.61;71.97;95579.47;4950388;28;20210;-84
2023/08/02 08:13:16;;;;;;;0.30;0.30;;;;;;;19.73;71.94;95572.56;4949033;28;20168;-85
2023/08/02 08:15:41;;;;;;;0.90;0.30;;;;;;;19.52;72.06;95565.69;4967587;28;20253;-84
2023/08/02 08:18:07;;;;;;;0.30;0.20;;;;;;;19.53;71.61;95554.00;4942266;28;20274;-83
2023/08/02 08:20:32;;;;;;;0.30;0.30;;;;;;;19.40;73.13;95571.06;4927056;28;20160;-85
2023/08/02 08:22:57;;;;;;;0.30;0.30;;;;;;;19.65;72.82;95566.34;4949743;28;20229;-83
2023/08/02 08:25:23;;;;;;;0.30;0.30;;;;;;;19.51;73.10;95563.38;4981303;28;20315;-84
2023/08/02 08:27:48;;;;;;;0.98;0.20;;;;;;;19.54;73.22;95555.53;4967173;28;20210;-84
2023/08/02 08:30:13;;;;;;;0.50;0.30;;;;;;;19.56;73.13;95549.91;4953516;28;20565;-83
2023/08/02 08:32:39;;;;;;;0.40;0.40;;;;;;;19.72;72.76;95553.28;4950452;28;20240;-82
2023/08/02 08:35:05;;;;;;;0.30;0.30;;;;;;;19.77;72.70;95552.31;4965919;28;20187;-83
2023/08/02 08:37:31;;;;;;;0.43;0.22;;;;;;;19.72;72.42;95518.22;4954297;28;20293;-84
2023/08/02 08:39:56;;;;;;;0.50;0.30;;;;;;;19.76;72.13;95527.78;4941515;28;20168;-83
2023/08/02 08:42:22;;;;;;;1.52;0.30;;;;;;;19.80;72.85;95533.13;4944101;28;20165;-82
2023/08/02 08:44:47;;;;;;;0.30;0.30;;;;;;;19.64;73.71;95502.22;4973122;28;20185;-85
2023/08/02 08:47:14;;;;;;;0.22;0.20;;;;;;;19.88;73.01;95504.97;4971888;28;20203;-83
2023/08/02 08:49:39;;;;;;;0.95;0.40;;;;;;;19.88;73.11;95497.84;4982066;28;20192;-86
2023/08/02 08:52:11;;;;;;;0.30;0.30;;;;;;;19.95;73.32;95500.63;4952244;28;20198;-83
2023/08/02 08:54:37;;;;;;;0.50;0.50;;;;;;;19.95;73.42;95511.19;4952809;28;20282;-85
2023/08/02 08:57:04;;;;;;;0.90;0.20;;;;;;;20.04;73.65;95502.31;4930155;28;20272;-84
2023/08/02 08:59:29;;;;;;;0.20;0.20;;;;;;;19.92;73.17;95485.47;4991073;28;20112;-84
2023/08/02 09:01:57;;;;;;;0.35;0.30;;;;;;;19.94;73.21;95495.69;4942539;28;20597;-84
2023/08/02 09:04:23;;;;;;;0.32;0.30;;;;;;;19.98;73.42;95497.31;4952207;28;20169;-84
2023/08/02 09:06:49;;;;;;;0.40;0.40;;;;;;;20.09;72.57;95496.75;4954045;28;20655;-84
2023/08/02 09:09:15;;;;;;;0.63;0.40;;;;;;;19.95;73.36;95476.09;4920853;28;20630;-86
2023/08/02 09:11:45;;;;;;;0.43;0.30;;;;;;;20.15;73.72;95492.72;4937672;28;20589;-84
2023/08/02 09:14:15;;;;;;;0.43;0.40;;;;;;;20.26;73.77;95491.06;4934013;28;20167;-83
2023/08/02 09:17:01;;;;;;;2.63;0.60;;;;;;;20.32;73.30;95494.97;4939282;28;20202;-85
2023/08/02 09:19:28;;;;;;;1.35;0.50;;;;;;;20.16;74.02;95484.44;4952305;28;20180;-85
2023/08/02 09:22:12;;;;;;;1.33;0.40;;;;;;;20.29;74.65;95493.00;4929880;28;20777;-84
2023/08/02 09:24:40;;;;;;;0.95;0.60;;;;;;;20.28;74.72;95480.91;4956977;28;20295;-83
2023/08/02 09:27:06;;;;;;;0.80;0.70;;;;;;;20.13;74.67;95485.13;4958276;28;20237;-86
2023/08/02 09:29:51;;;;;;;1.30;0.70;;;;;;;20.39;74.00;95483.72;4939677;28;20212;-87
2023/08/02 09:32:18;;;;;;;1.38;0.90;;;;;;;20.35;73.99;95473.09;4956502;28;20264;-83
2023/08/02 09:34:45;;;;;;;1.20;0.63;;;;;;;20.31;74.43;95474.91;4968322;28;20613;-83
2023/08/02 09:37:12;;;;;;;1.10;0.90;;;;;;;20.31;74.68;95477.56;4995304;28;20252;-85
2023/08/02 09:39:38;;;;;;;1.42;0.90;;;;;;;20.36;74.44;95468.59;4946057;28;20191;-85
2023/08/02 09:42:14;;;;;;;1.00;0.88;;;;;;;20.44;74.52;95466.84;4938404;28;20209;-85
2023/08/02 09:45:03;;;;;;;1.30;1.15;;;;;;;20.59;74.02;95465.97;4966486;28;20377;-85
2023/08/02 09:47:29;;;;;;;1.23;1.10;;;;;;;20.33;75.33;95464.75;4927429;28;20243;-83
2023/08/02 09:50:09;;;;;;;1.48;1.30;;;;;;;20.63;74.35;95463.41;4941754;28;20210;-85
2023/08/02 09:52:36;;;;;;;1.42;1.33;;;;;;;20.48;75.23;95467.69;4965609;28;20115;-86
2023/08/02 09:55:01;;;;;;;1.38;1.25;;;;;;;20.45;74.96;95458.56;4944025;28;20287;-84
2023/08/02 09:57:28;;;;;;;2.65;1.50;;;;;;;20.24;75.52;95463.44;4968764;28;20269;-85
2023/08/02 09:59:55;;;;;;;2.72;1.65;;;;;;;20.15;76.31;95439.84;4929865;28;20186;-87
2023/08/02 10:02:25;;;;;;;2.88;1.80;;;;;;;20.38;76.55;95448.59;4956378;28;20241;-85
2023/08/02 10:04:54;;;;;;;2.47;1.70;;;;;;;20.28;75.89;95432.56;4941713;28;20269;-86
2023/08/02 10:07:20;;;;;;;2.38;1.85;;;;;;;20.62;75.06;95433.56;4957266;28;20733;-89
2023/08/02 10:09:45;;;;;;;1.88;1.70;;;;;;;20.30;76.52;95452.22;4954694;28;20319;-86
2023/08/02 10:12:17;;;;;;;2.60;2.08;;;;;;;20.71;75.20;95444.66;4989187;28;20212;-83
2023/08/02 10:14:42;;;;;;;2.95;2.03;;;;;;;20.53;75.85;95438.31;4940950;28;20203;-82
2023/08/02 10:17:09;;;;;;;2.22;2.03;;;;;;;20.68;75.13;95444.63;4931244;28;20176;-81
2023/08/02 10:19:35;;;;;;;2.78;2.50;;;;;;;20.59;75.66;95432.34;4969156;28;20213;-86
2023/08/02 10:22:06;;;;;;;3.33;2.40;;;;;;;20.67;75.59;95438.56;4983241;28;20285;-83
2023/08/02 10:24:31;;;;;;;3.83;3.00;;;;;;;20.69;75.38;95422.34;4941774;28;20236;-86
2023/08/02 10:26:58;;;;;;;3.88;2.50;;;;;;;20.62;76.49;95423.00;4939802;28;20200;-87
2023/08/02 10:29:25;;;;;;;4.15;2.67;;;;;;;20.63;76.25;95418.47;4957515;28;20217;-86
2023/08/02 10:31:51;;;;;;;3.47;2.95;;;;;;;20.47;77.07;95421.19;4957107;28;20633;-83
2023/08/02 10:34:34;;;;;;;3.20;2.85;;;;;;;20.80;75.36;95430.47;4957705;28;20199;-84
2023/08/02 10:37:00;;;;;;;3.17;2.88;;;;;;;20.75;76.05;95411.13;4968608;28;20299;-85
2023/08/02 10:39:47;;;;;;;4.25;3.42;;;;;;;21.13;74.65;95425.31;4949282;28;20677;-87
2023/08/02 10:42:29;;;;;;;3.25;2.40;;;;;;;20.68;75.58;95397.00;4976954;28;20259;-83
2023/08/02 10:44:54;;;;;;;4.50;3.22;;;;;;;20.64;75.99;95415.47;4938721;28;20279;-86
2023/08/02 10:47:24;;;;;;;2.90;2.60;;;;;;;20.75;75.99;95420.94;4956785;28;20223;-84
2023/08/02 10:49:51;;;;;;;3.00;2.67;;;;;;;20.92;75.43;95427.63;4981149;28;20588;-84
2023/08/02 10:52:33;;;;;;;4.78;3.00;;;;;;;20.90;75.61;95414.00;4965849;28;20279;-83
2023/08/02 10:55:06;;;;;;;4.72;3.22;;;;;;;20.68;75.92;95426.09;4970167;28;20358;-86
2023/08/02 10:57:31;;;;;;;4.57;2.92;;;;;;;20.65;76.29;95419.66;4992103;28;20696;-84
2023/08/02 10:59:57;;;;;;;4.18;3.20;;;;;;;20.61;76.90;95423.31;4935268;28;20181;-84
2023/08/02 11:02:25;;;;;;;4.72;3.38;;;;;;;20.61;76.16;95397.63;4926985;28;20168;-84
2023/08/02 11:04:51;;;;;;;3.80;2.85;;;;;;;20.58;76.79;95408.94;4964754;28;20256;-85
2023/08/02 11:07:21;;;;;;;4.68;3.60;;;;;;;20.48;77.00;95406.88;4984701;28;20090;-87
2023/08/02 11:09:49;;;;;;;5.85;3.33;;;;;;;20.74;76.10;95396.38;4947024;28;20228;-83
2023/08/02 11:12:18;;;;;;;3.95;3.53;;;;;;;20.90;75.94;95404.16;4934553;28;20171;-85
2023/08/02 11:14:45;;;;;;;4.22;3.38;;;;;;;20.65;77.11;95397.72;4989107;28;20187;-85
2023/08/02 11:17:15;;;;;;;3.85;3.35;;;;;;;20.87;76.85;95404.13;4944327;28;20202;-85
2023/08/02 11:19:48;;;;;;;5.43;3.47;;;;;;;20.95;76.31;95387.25;4943079;28;20367;-84
2023/08/02 11:22:15;;;;;;;4.90;3.63;;;;;;;21.01;76.03;95409.63;4941196;28;20293;-88
2023/08/02 11:24:51;;;;;;;4.13;3.33;;;;;;;20.83;76.58;95403.31;4931981;28;20119;-86
2023/08/02 11:27:18;;;;;;;4.65;3.60;;;;;;;20.91;76.20;95403.06;4965943;28;20594;-87
2023/08/02 11:30:04;;;;;;;5.25;3.90;;;;;;;21.07;75.85;95410.09;4961366;28;20239;-83
2023/08/02 11:32:32;;;;;;;4.05;3.65;;;;;;;20.92;76.31;95396.66;4939031;28;20172;-87